Trefriw, United Kingdom
Current Conditions -  °F | °C
As of 4:50 AM on Tuesday 23 Dec 2014 (Local Time) from EGOV Reporting Station
Haze Haze  
Wind Chill: 52°   Ceiling: 14000
Heat Index: 52°   Visibility: 6mi
Dew Point: 48°   Wind: 32mph
Humidity: 88%   Direction: 210°SSW
Pressure: 29.83"   Gusts: NA
Location:  53.13°N, 3.81°W
Report Text: EGOV 230450Z AUTO 21028KT 9000 HZ SCT048/// BKN140/// 11/09 Q1010
Loading
Personal Weather Stations






























Interactive Weather Map New forecast layout! Learn more

10-Day Weather Forecast

Advertisements
Track Severe Weather on mobile